sensor_id;sensor_type;location;lat;lon;timestamp;P1;durP1;ratioP1;P2;durP2;ratioP2
41568;SDS011;27283;52.504;13.358;2022-10-31T00:00:53;91.47;;;44.05;;
41568;SDS011;27283;52.504;13.358;2022-10-31T00:03:40;94.47;;;45.58;;
41568;SDS011;27283;52.504;13.358;2022-10-31T00:06:12;83.93;;;42.78;;
41568;SDS011;27283;52.504;13.358;2022-10-31T00:08:46;89.03;;;43.72;;
41568;SDS011;27283;52.504;13.358;2022-10-31T00:11:23;88.07;;;42.83;;
41568;SDS011;27283;52.504;13.358;2022-10-31T00:13:56;75.50;;;39.38;;
41568;SDS011;27283;52.504;13.358;2022-10-31T00:16:29;78.63;;;38.88;;
41568;SDS011;27283;52.504;13.358;2022-10-31T00:19:05;83.13;;;41.05;;
41568;SDS011;27283;52.504;13.358;2022-10-31T00:21:38;78.82;;;39.72;;
41568;SDS011;27283;52.504;13.358;2022-10-31T00:24:10;87.03;;;40.92;;
41568;SDS011;27283;52.504;13.358;2022-10-31T00:26:42;76.18;;;39.20;;
41568;SDS011;27283;52.504;13.358;2022-10-31T00:29:15;82.90;;;39.45;;
41568;SDS011;27283;52.504;13.358;2022-10-31T00:31:47;76.15;;;37.95;;
41568;SDS011;27283;52.504;13.358;2022-10-31T00:34:22;74.32;;;37.83;;
41568;SDS011;27283;52.504;13.358;2022-10-31T00:36:54;77.50;;;38.30;;
41568;SDS011;27283;52.504;13.358;2022-10-31T00:39:26;73.55;;;35.90;;
41568;SDS011;27283;52.504;13.358;2022-10-31T00:41:58;75.45;;;37.53;;
41568;SDS011;27283;52.504;13.358;2022-10-31T00:44:30;79.20;;;38.72;;
41568;SDS011;27283;52.504;13.358;2022-10-31T00:47:01;83.20;;;39.67;;
41568;SDS011;27283;52.504;13.358;2022-10-31T00:49:36;66.55;;;34.90;;
41568;SDS011;27283;52.504;13.358;2022-10-31T00:52:07;77.72;;;36.70;;
41568;SDS011;27283;52.504;13.358;2022-10-31T00:54:39;81.63;;;39.28;;
41568;SDS011;27283;52.504;13.358;2022-10-31T00:57:11;74.18;;;37.42;;
41568;SDS011;27283;52.504;13.358;2022-10-31T00:59:43;79.15;;;37.00;;
41568;SDS011;27283;52.504;13.358;2022-10-31T01:02:15;75.88;;;37.63;;
41568;SDS011;27283;52.504;13.358;2022-10-31T01:04:49;79.85;;;38.13;;
41568;SDS011;27283;52.504;13.358;2022-10-31T01:07:21;76.85;;;38.67;;
41568;SDS011;27283;52.504;13.358;2022-10-31T01:09:53;75.43;;;38.00;;
41568;SDS011;27283;52.504;13.358;2022-10-31T01:12:25;81.63;;;37.33;;
41568;SDS011;27283;52.504;13.358;2022-10-31T01:14:56;74.53;;;37.20;;
41568;SDS011;27283;52.504;13.358;2022-10-31T01:17:28;77.03;;;37.70;;
41568;SDS011;27283;52.504;13.358;2022-10-31T01:20:03;84.50;;;37.03;;
41568;SDS011;27283;52.504;13.358;2022-10-31T01:22:36;73.82;;;36.10;;
41568;SDS011;27283;52.504;13.358;2022-10-31T01:25:08;72.97;;;35.88;;
41568;SDS011;27283;52.504;13.358;2022-10-31T01:27:40;68.18;;;35.42;;
41568;SDS011;27283;52.504;13.358;2022-10-31T01:30:12;81.97;;;35.00;;
41568;SDS011;27283;52.504;13.358;2022-10-31T01:32:43;68.03;;;34.00;;
41568;SDS011;27283;52.504;13.358;2022-10-31T01:35:18;63.50;;;32.90;;
41568;SDS011;27283;52.504;13.358;2022-10-31T01:37:49;72.05;;;33.00;;
41568;SDS011;27283;52.504;13.358;2022-10-31T01:40:21;74.22;;;34.70;;
41568;SDS011;27283;52.504;13.358;2022-10-31T01:42:53;66.47;;;32.92;;
41568;SDS011;27283;52.504;13.358;2022-10-31T01:45:25;65.50;;;31.50;;
41568;SDS011;27283;52.504;13.358;2022-10-31T01:47:57;69.05;;;32.30;;
41568;SDS011;27283;52.504;13.358;2022-10-31T01:50:33;65.63;;;33.13;;
41568;SDS011;27283;52.504;13.358;2022-10-31T01:53:08;66.30;;;32.13;;
41568;SDS011;27283;52.504;13.358;2022-10-31T01:55:43;68.75;;;33.17;;
41568;SDS011;27283;52.504;13.358;2022-10-31T01:58:19;63.60;;;30.63;;
41568;SDS011;27283;52.504;13.358;2022-10-31T02:00:54;60.70;;;30.73;;
41568;SDS011;27283;52.504;13.358;2022-10-31T02:03:34;64.70;;;32.45;;
41568;SDS011;27283;52.504;13.358;2022-10-31T02:06:10;65.40;;;32.33;;
41568;SDS011;27283;52.504;13.358;2022-10-31T02:08:47;64.13;;;31.92;;
41568;SDS011;27283;52.504;13.358;2022-10-31T02:11:20;62.45;;;32.47;;
41568;SDS011;27283;52.504;13.358;2022-10-31T02:13:52;63.83;;;32.92;;
41568;SDS011;27283;52.504;13.358;2022-10-31T02:16:24;71.13;;;33.85;;
41568;SDS011;27283;52.504;13.358;2022-10-31T02:18:55;66.70;;;33.05;;
41568;SDS011;27283;52.504;13.358;2022-10-31T02:21:33;66.97;;;30.50;;
41568;SDS011;27283;52.504;13.358;2022-10-31T02:24:28;66.72;;;31.98;;
41568;SDS011;27283;52.504;13.358;2022-10-31T02:27:17;67.35;;;31.98;;
41568;SDS011;27283;52.504;13.358;2022-10-31T02:30:09;57.33;;;30.48;;
41568;SDS011;27283;52.504;13.358;2022-10-31T02:33:00;66.60;;;31.40;;
41568;SDS011;27283;52.504;13.358;2022-10-31T02:35:51;67.05;;;31.08;;
41568;SDS011;27283;52.504;13.358;2022-10-31T02:38:31;62.95;;;30.00;;
41568;SDS011;27283;52.504;13.358;2022-10-31T02:41:14;58.72;;;30.00;;
41568;SDS011;27283;52.504;13.358;2022-10-31T02:43:55;59.65;;;30.10;;
41568;SDS011;27283;52.504;13.358;2022-10-31T02:46:38;63.53;;;31.50;;
41568;SDS011;27283;52.504;13.358;2022-10-31T02:49:22;62.08;;;31.92;;
41568;SDS011;27283;52.504;13.358;2022-10-31T02:51:58;68.53;;;32.63;;
41568;SDS011;27283;52.504;13.358;2022-10-31T02:54:31;66.15;;;32.00;;
41568;SDS011;27283;52.504;13.358;2022-10-31T02:57:03;62.95;;;30.35;;
41568;SDS011;27283;52.504;13.358;2022-10-31T02:59:39;62.17;;;30.83;;
41568;SDS011;27283;52.504;13.358;2022-10-31T03:05:40;71.03;;;31.90;;
41568;SDS011;27283;52.504;13.358;2022-10-31T03:08:23;69.55;;;31.55;;
41568;SDS011;27283;52.504;13.358;2022-10-31T03:11:02;61.38;;;31.30;;
41568;SDS011;27283;52.504;13.358;2022-10-31T03:13:41;55.75;;;29.73;;
41568;SDS011;27283;52.504;13.358;2022-10-31T03:16:21;64.72;;;30.73;;
41568;SDS011;27283;52.504;13.358;2022-10-31T03:19:01;59.92;;;30.77;;
41568;SDS011;27283;52.504;13.358;2022-10-31T03:21:38;57.85;;;29.95;;
41568;SDS011;27283;52.504;13.358;2022-10-31T03:24:14;56.45;;;30.23;;
41568;SDS011;27283;52.504;13.358;2022-10-31T03:26:47;62.40;;;29.55;;
41568;SDS011;27283;52.504;13.358;2022-10-31T03:29:22;60.00;;;27.98;;
41568;SDS011;27283;52.504;13.358;2022-10-31T03:31:59;50.47;;;27.55;;
41568;SDS011;27283;52.504;13.358;2022-10-31T03:34:35;50.90;;;26.48;;
41568;SDS011;27283;52.504;13.358;2022-10-31T03:37:13;59.47;;;27.83;;
41568;SDS011;27283;52.504;13.358;2022-10-31T03:39:47;60.83;;;26.83;;
41568;SDS011;27283;52.504;13.358;2022-10-31T03:42:21;56.33;;;26.60;;
41568;SDS011;27283;52.504;13.358;2022-10-31T03:44:55;49.72;;;25.25;;
41568;SDS011;27283;52.504;13.358;2022-10-31T03:47:31;51.25;;;25.33;;
41568;SDS011;27283;52.504;13.358;2022-10-31T09:41:14;58.40;;;27.08;;
41568;SDS011;27283;52.504;13.358;2022-10-31T09:43:58;64.63;;;27.95;;
41568;SDS011;27283;52.504;13.358;2022-10-31T09:46:41;55.60;;;27.70;;
41568;SDS011;27283;52.504;13.358;2022-10-31T09:49:34;56.42;;;28.60;;
41568;SDS011;27283;52.504;13.358;2022-10-31T09:52:20;58.15;;;28.80;;
41568;SDS011;27283;52.504;13.358;2022-10-31T09:55:02;56.38;;;27.92;;
41568;SDS011;27283;52.504;13.358;2022-10-31T09:57:44;59.40;;;28.02;;
41568;SDS011;27283;52.504;13.358;2022-10-31T10:00:22;49.97;;;26.77;;
41568;SDS011;27283;52.504;13.358;2022-10-31T10:02:56;52.83;;;25.30;;
41568;SDS011;27283;52.504;13.358;2022-10-31T10:05:40;57.83;;;27.73;;
41568;SDS011;27283;52.504;13.358;2022-10-31T10:08:18;52.35;;;26.52;;
41568;SDS011;27283;52.504;13.358;2022-10-31T10:10:55;61.85;;;28.52;;
41568;SDS011;27283;52.504;13.358;2022-10-31T10:13:44;57.75;;;27.50;;
41568;SDS011;27283;52.504;13.358;2022-10-31T10:16:33;62.00;;;28.40;;
41568;SDS011;27283;52.504;13.358;2022-10-31T10:19:24;53.22;;;26.80;;
41568;SDS011;27283;52.504;13.358;2022-10-31T10:22:12;60.33;;;29.20;;
41568;SDS011;27283;52.504;13.358;2022-10-31T10:25:01;53.08;;;27.77;;
41568;SDS011;27283;52.504;13.358;2022-10-31T10:27:50;48.15;;;26.38;;
41568;SDS011;27283;52.504;13.358;2022-10-31T10:30:37;54.70;;;27.38;;
41568;SDS011;27283;52.504;13.358;2022-10-31T10:33:16;57.58;;;27.60;;
41568;SDS011;27283;52.504;13.358;2022-10-31T10:35:53;51.03;;;25.90;;
41568;SDS011;27283;52.504;13.358;2022-10-31T10:38:33;55.22;;;27.17;;
41568;SDS011;27283;52.504;13.358;2022-10-31T10:41:11;57.78;;;27.70;;
41568;SDS011;27283;52.504;13.358;2022-10-31T10:43:49;55.58;;;26.65;;
41568;SDS011;27283;52.504;13.358;2022-10-31T10:46:23;50.55;;;27.42;;
41568;SDS011;27283;52.504;13.358;2022-10-31T10:49:17;55.13;;;26.70;;
41568;SDS011;27283;52.504;13.358;2022-10-31T10:51:54;57.80;;;28.20;;
41568;SDS011;27283;52.504;13.358;2022-10-31T10:54:55;61.00;;;27.77;;
41568;SDS011;27283;52.504;13.358;2022-10-31T10:57:41;59.15;;;29.10;;
41568;SDS011;27283;52.504;13.358;2022-10-31T11:00:25;54.00;;;27.77;;
41568;SDS011;27283;52.504;13.358;2022-10-31T11:03:02;58.25;;;27.73;;
41568;SDS011;27283;52.504;13.358;2022-10-31T11:05:37;63.53;;;27.65;;
41568;SDS011;27283;52.504;13.358;2022-10-31T11:08:23;65.93;;;28.70;;
41568;SDS011;27283;52.504;13.358;2022-10-31T11:10:58;53.00;;;27.33;;
41568;SDS011;27283;52.504;13.358;2022-10-31T11:13:33;60.45;;;27.70;;
41568;SDS011;27283;52.504;13.358;2022-10-31T11:16:10;57.63;;;28.25;;
41568;SDS011;27283;52.504;13.358;2022-10-31T11:18:47;63.28;;;28.55;;
41568;SDS011;27283;52.504;13.358;2022-10-31T11:21:21;65.97;;;28.40;;
41568;SDS011;27283;52.504;13.358;2022-10-31T11:24:01;60.50;;;29.88;;
41568;SDS011;27283;52.504;13.358;2022-10-31T11:26:35;63.58;;;28.60;;
41568;SDS011;27283;52.504;13.358;2022-10-31T11:29:13;71.22;;;29.73;;
41568;SDS011;27283;52.504;13.358;2022-10-31T11:31:50;64.47;;;30.40;;
41568;SDS011;27283;52.504;13.358;2022-10-31T11:34:32;61.03;;;29.92;;
41568;SDS011;27283;52.504;13.358;2022-10-31T11:37:09;60.38;;;29.67;;
41568;SDS011;27283;52.504;13.358;2022-10-31T11:39:48;66.93;;;29.33;;
41568;SDS011;27283;52.504;13.358;2022-10-31T11:42:26;64.75;;;31.08;;
41568;SDS011;27283;52.504;13.358;2022-10-31T11:45:04;64.85;;;30.50;;
41568;SDS011;27283;52.504;13.358;2022-10-31T11:47:47;59.53;;;28.67;;
41568;SDS011;27283;52.504;13.358;2022-10-31T11:50:31;66.40;;;29.58;;
41568;SDS011;27283;52.504;13.358;2022-10-31T11:53:14;62.90;;;30.10;;
41568;SDS011;27283;52.504;13.358;2022-10-31T11:55:58;57.05;;;28.27;;
41568;SDS011;27283;52.504;13.358;2022-10-31T11:58:35;64.93;;;31.70;;
41568;SDS011;27283;52.504;13.358;2022-10-31T12:01:18;73.47;;;32.85;;
41568;SDS011;27283;52.504;13.358;2022-10-31T12:03:59;67.50;;;31.38;;
41568;SDS011;27283;52.504;13.358;2022-10-31T12:06:41;69.22;;;30.67;;
41568;SDS011;27283;52.504;13.358;2022-10-31T12:09:18;69.93;;;31.48;;
41568;SDS011;27283;52.504;13.358;2022-10-31T12:12:02;71.63;;;32.05;;
41568;SDS011;27283;52.504;13.358;2022-10-31T12:14:59;73.32;;;31.67;;
41568;SDS011;27283;52.504;13.358;2022-10-31T12:17:44;67.18;;;31.83;;
41568;SDS011;27283;52.504;13.358;2022-10-31T12:20:51;62.22;;;30.88;;
41568;SDS011;27283;52.504;13.358;2022-10-31T12:23:39;59.95;;;30.90;;
41568;SDS011;27283;52.504;13.358;2022-10-31T12:26:25;70.47;;;30.70;;
41568;SDS011;27283;52.504;13.358;2022-10-31T12:29:10;59.88;;;30.02;;
41568;SDS011;27283;52.504;13.358;2022-10-31T12:31:56;62.08;;;28.85;;
41568;SDS011;27283;52.504;13.358;2022-10-31T12:34:51;68.60;;;31.70;;
41568;SDS011;27283;52.504;13.358;2022-10-31T12:37:50;66.10;;;28.88;;
41568;SDS011;27283;52.504;13.358;2022-10-31T12:40:46;66.63;;;31.45;;
41568;SDS011;27283;52.504;13.358;2022-10-31T12:43:36;66.25;;;29.90;;
41568;SDS011;27283;52.504;13.358;2022-10-31T12:46:21;67.55;;;30.08;;
41568;SDS011;27283;52.504;13.358;2022-10-31T12:49:24;65.95;;;30.17;;
41568;SDS011;27283;52.504;13.358;2022-10-31T12:55:09;64.43;;;30.80;;
41568;SDS011;27283;52.504;13.358;2022-10-31T12:58:20;60.95;;;30.58;;
41568;SDS011;27283;52.504;13.358;2022-10-31T13:00:58;60.72;;;29.23;;
41568;SDS011;27283;52.504;13.358;2022-10-31T13:03:44;56.33;;;29.13;;
41568;SDS011;27283;52.504;13.358;2022-10-31T13:06:24;62.63;;;30.75;;
41568;SDS011;27283;52.504;13.358;2022-10-31T13:09:04;59.67;;;30.63;;
41568;SDS011;27283;52.504;13.358;2022-10-31T13:11:41;63.65;;;30.17;;
41568;SDS011;27283;52.504;13.358;2022-10-31T13:14:20;61.42;;;29.35;;
41568;SDS011;27283;52.504;13.358;2022-10-31T13:16:58;63.22;;;29.75;;
41568;SDS011;27283;52.504;13.358;2022-10-31T13:19:36;63.30;;;28.88;;
41568;SDS011;27283;52.504;13.358;2022-10-31T13:22:12;69.28;;;31.10;;
41568;SDS011;27283;52.504;13.358;2022-10-31T13:24:50;65.80;;;30.38;;
41568;SDS011;27283;52.504;13.358;2022-10-31T13:27:36;67.07;;;30.83;;
41568;SDS011;27283;52.504;13.358;2022-10-31T13:30:21;67.93;;;31.38;;
41568;SDS011;27283;52.504;13.358;2022-10-31T13:32:59;63.78;;;30.08;;
41568;SDS011;27283;52.504;13.358;2022-10-31T13:35:36;62.60;;;30.02;;
41568;SDS011;27283;52.504;13.358;2022-10-31T13:38:20;62.03;;;30.55;;
41568;SDS011;27283;52.504;13.358;2022-10-31T13:41:04;66.00;;;31.10;;
41568;SDS011;27283;52.504;13.358;2022-10-31T13:43:56;62.35;;;29.42;;
41568;SDS011;27283;52.504;13.358;2022-10-31T13:46:40;61.85;;;29.88;;
41568;SDS011;27283;52.504;13.358;2022-10-31T13:49:23;59.97;;;29.92;;
41568;SDS011;27283;52.504;13.358;2022-10-31T13:52:05;67.82;;;31.27;;
41568;SDS011;27283;52.504;13.358;2022-10-31T13:54:48;72.78;;;34.40;;
41568;SDS011;27283;52.504;13.358;2022-10-31T13:57:27;72.25;;;33.40;;
41568;SDS011;27283;52.504;13.358;2022-10-31T14:00:05;70.53;;;33.33;;
41568;SDS011;27283;52.504;13.358;2022-10-31T14:02:57;71.47;;;34.40;;
41568;SDS011;27283;52.504;13.358;2022-10-31T14:05:31;74.50;;;36.58;;
41568;SDS011;27283;52.504;13.358;2022-10-31T14:08:06;81.07;;;38.40;;
41568;SDS011;27283;52.504;13.358;2022-10-31T14:10:53;76.75;;;38.42;;
41568;SDS011;27283;52.504;13.358;2022-10-31T14:13:28;83.72;;;39.22;;
41568;SDS011;27283;52.504;13.358;2022-10-31T14:16:06;83.07;;;40.17;;
41568;SDS011;27283;52.504;13.358;2022-10-31T14:18:56;91.53;;;41.65;;
41568;SDS011;27283;52.504;13.358;2022-10-31T14:21:36;96.60;;;43.17;;
41568;SDS011;27283;52.504;13.358;2022-10-31T14:24:15;93.07;;;42.35;;
41568;SDS011;27283;52.504;13.358;2022-10-31T14:27:03;94.43;;;43.03;;
41568;SDS011;27283;52.504;13.358;2022-10-31T14:30:07;103.43;;;43.60;;
41568;SDS011;27283;52.504;13.358;2022-10-31T14:32:49;100.95;;;43.83;;
41568;SDS011;27283;52.504;13.358;2022-10-31T14:35:34;103.45;;;44.72;;
41568;SDS011;27283;52.504;13.358;2022-10-31T14:41:29;103.50;;;45.70;;
41568;SDS011;27283;52.504;13.358;2022-10-31T14:44:22;112.32;;;47.90;;
41568;SDS011;27283;52.504;13.358;2022-10-31T14:47:19;119.00;;;48.58;;
41568;SDS011;27283;52.504;13.358;2022-10-31T14:50:18;114.75;;;47.47;;
41568;SDS011;27283;52.504;13.358;2022-10-31T14:53:15;123.82;;;48.28;;
41568;SDS011;27283;52.504;13.358;2022-10-31T14:55:53;120.85;;;50.55;;
41568;SDS011;27283;52.504;13.358;2022-10-31T14:58:35;120.50;;;49.05;;
41568;SDS011;27283;52.504;13.358;2022-10-31T15:01:15;135.40;;;53.13;;
41568;SDS011;27283;52.504;13.358;2022-10-31T15:03:53;139.25;;;54.70;;
41568;SDS011;27283;52.504;13.358;2022-10-31T15:06:54;132.30;;;52.35;;
41568;SDS011;27283;52.504;13.358;2022-10-31T15:09:33;142.50;;;55.28;;
41568;SDS011;27283;52.504;13.358;2022-10-31T15:12:23;142.45;;;55.38;;
41568;SDS011;27283;52.504;13.358;2022-10-31T15:17:46;155.43;;;59.22;;
41568;SDS011;27283;52.504;13.358;2022-10-31T15:20:22;159.30;;;61.50;;
41568;SDS011;27283;52.504;13.358;2022-10-31T15:23:00;160.63;;;61.58;;
41568;SDS011;27283;52.504;13.358;2022-10-31T15:25:32;176.57;;;64.63;;
41568;SDS011;27283;52.504;13.358;2022-10-31T15:28:13;183.65;;;67.85;;
41568;SDS011;27283;52.504;13.358;2022-10-31T15:30:52;182.90;;;66.47;;
41568;SDS011;27283;52.504;13.358;2022-10-31T15:33:25;191.88;;;67.72;;
41568;SDS011;27283;52.504;13.358;2022-10-31T15:36:16;192.85;;;67.90;;
41568;SDS011;27283;52.504;13.358;2022-10-31T15:38:58;196.60;;;69.03;;
41568;SDS011;27283;52.504;13.358;2022-10-31T15:41:31;192.27;;;68.20;;
41568;SDS011;27283;52.504;13.358;2022-10-31T15:44:07;222.27;;;71.18;;
41568;SDS011;27283;52.504;13.358;2022-10-31T15:46:51;270.17;;;80.00;;
41568;SDS011;27283;52.504;13.358;2022-10-31T15:49:28;247.38;;;79.70;;
41568;SDS011;27283;52.504;13.358;2022-10-31T15:52:04;283.20;;;81.28;;
41568;SDS011;27283;52.504;13.358;2022-10-31T15:54:47;270.45;;;80.18;;
41568;SDS011;27283;52.504;13.358;2022-10-31T15:57:20;268.50;;;79.82;;
41568;SDS011;27283;52.504;13.358;2022-10-31T15:59:55;278.50;;;83.35;;
41568;SDS011;27283;52.504;13.358;2022-10-31T16:02:28;293.00;;;84.15;;
41568;SDS011;27283;52.504;13.358;2022-10-31T16:05:00;320.17;;;87.10;;
41568;SDS011;27283;52.504;13.358;2022-10-31T16:07:33;372.38;;;94.20;;
41568;SDS011;27283;52.504;13.358;2022-10-31T16:12:58;408.98;;;99.70;;
41568;SDS011;27283;52.504;13.358;2022-10-31T16:15:33;567.00;;;115.70;;
41568;SDS011;27283;52.504;13.358;2022-10-31T16:18:10;405.52;;;99.45;;
41568;SDS011;27283;52.504;13.358;2022-10-31T16:20:47;472.48;;;106.35;;
41568;SDS011;27283;52.504;13.358;2022-10-31T16:23:22;412.35;;;99.38;;
41568;SDS011;27283;52.504;13.358;2022-10-31T16:26:04;380.25;;;97.85;;
41568;SDS011;27283;52.504;13.358;2022-10-31T16:28:38;344.63;;;94.85;;
41568;SDS011;27283;52.504;13.358;2022-10-31T16:31:15;355.60;;;93.32;;
41568;SDS011;27283;52.504;13.358;2022-10-31T16:33:49;376.13;;;96.68;;
41568;SDS011;27283;52.504;13.358;2022-10-31T16:36:30;381.45;;;96.53;;
41568;SDS011;27283;52.504;13.358;2022-10-31T16:39:05;356.00;;;92.32;;
41568;SDS011;27283;52.504;13.358;2022-10-31T16:41:40;551.00;;;108.97;;
41568;SDS011;27283;52.504;13.358;2022-10-31T16:44:17;408.33;;;100.90;;
41568;SDS011;27283;52.504;13.358;2022-10-31T16:47:07;463.13;;;102.63;;
41568;SDS011;27283;52.504;13.358;2022-10-31T16:49:42;550.63;;;104.95;;
41568;SDS011;27283;52.504;13.358;2022-10-31T16:52:16;547.55;;;106.97;;
41568;SDS011;27283;52.504;13.358;2022-10-31T16:54:52;709.28;;;118.43;;
41568;SDS011;27283;52.504;13.358;2022-10-31T16:57:26;831.67;;;131.48;;
41568;SDS011;27283;52.504;13.358;2022-10-31T17:00:02;616.20;;;120.40;;
41568;SDS011;27283;52.504;13.358;2022-10-31T17:02:35;619.10;;;120.68;;
41568;SDS011;27283;52.504;13.358;2022-10-31T17:05:08;650.83;;;124.32;;
41568;SDS011;27283;52.504;13.358;2022-10-31T17:07:43;584.20;;;116.80;;
41568;SDS011;27283;52.504;13.358;2022-10-31T17:10:15;573.42;;;119.75;;
41568;SDS011;27283;52.504;13.358;2022-10-31T17:12:50;526.45;;;112.40;;
41568;SDS011;27283;52.504;13.358;2022-10-31T17:15:23;506.05;;;108.82;;
41568;SDS011;27283;52.504;13.358;2022-10-31T17:17:56;503.02;;;105.35;;
41568;SDS011;27283;52.504;13.358;2022-10-31T17:20:28;513.95;;;110.85;;
41568;SDS011;27283;52.504;13.358;2022-10-31T17:23:01;477.98;;;107.32;;
41568;SDS011;27283;52.504;13.358;2022-10-31T17:25:33;522.13;;;111.07;;
41568;SDS011;27283;52.504;13.358;2022-10-31T17:28:08;466.02;;;105.60;;
41568;SDS011;27283;52.504;13.358;2022-10-31T17:30:42;441.65;;;104.20;;
41568;SDS011;27283;52.504;13.358;2022-10-31T17:33:15;440.85;;;104.70;;
41568;SDS011;27283;52.504;13.358;2022-10-31T17:35:47;410.33;;;101.38;;
41568;SDS011;27283;52.504;13.358;2022-10-31T17:38:19;425.83;;;103.18;;
41568;SDS011;27283;52.504;13.358;2022-10-31T17:40:51;399.35;;;98.63;;
41568;SDS011;27283;52.504;13.358;2022-10-31T17:43:26;386.90;;;97.32;;
41568;SDS011;27283;52.504;13.358;2022-10-31T17:45:58;384.92;;;97.05;;
41568;SDS011;27283;52.504;13.358;2022-10-31T17:48:31;382.42;;;96.40;;
41568;SDS011;27283;52.504;13.358;2022-10-31T17:51:04;384.92;;;97.82;;
41568;SDS011;27283;52.504;13.358;2022-10-31T17:53:37;373.27;;;95.55;;
41568;SDS011;27283;52.504;13.358;2022-10-31T17:56:09;431.45;;;104.45;;
41568;SDS011;27283;52.504;13.358;2022-10-31T17:58:45;425.75;;;102.28;;
41568;SDS011;27283;52.504;13.358;2022-10-31T18:01:17;361.67;;;97.18;;
41568;SDS011;27283;52.504;13.358;2022-10-31T18:03:50;356.25;;;98.28;;
41568;SDS011;27283;52.504;13.358;2022-10-31T18:06:21;351.52;;;93.72;;
41568;SDS011;27283;52.504;13.358;2022-10-31T18:08:54;380.48;;;94.78;;
41568;SDS011;27283;52.504;13.358;2022-10-31T18:11:26;425.52;;;102.10;;
41568;SDS011;27283;52.504;13.358;2022-10-31T18:14:01;374.80;;;98.15;;
41568;SDS011;27283;52.504;13.358;2022-10-31T18:16:33;508.08;;;110.57;;
41568;SDS011;27283;52.504;13.358;2022-10-31T18:19:05;518.55;;;112.20;;
41568;SDS011;27283;52.504;13.358;2022-10-31T18:21:36;468.75;;;106.22;;
41568;SDS011;27283;52.504;13.358;2022-10-31T18:24:08;452.25;;;108.53;;
41568;SDS011;27283;52.504;13.358;2022-10-31T18:26:40;392.70;;;99.55;;
41568;SDS011;27283;52.504;13.358;2022-10-31T18:29:14;387.83;;;97.47;;
41568;SDS011;27283;52.504;13.358;2022-10-31T18:31:46;383.25;;;96.65;;
41568;SDS011;27283;52.504;13.358;2022-10-31T18:34:20;379.80;;;95.28;;
41568;SDS011;27283;52.504;13.358;2022-10-31T18:36:52;378.77;;;96.25;;
41568;SDS011;27283;52.504;13.358;2022-10-31T18:39:25;449.45;;;102.43;;
41568;SDS011;27283;52.504;13.358;2022-10-31T18:41:57;437.60;;;105.30;;
41568;SDS011;27283;52.504;13.358;2022-10-31T18:44:32;406.55;;;99.32;;
41568;SDS011;27283;52.504;13.358;2022-10-31T18:47:04;386.75;;;97.18;;
41568;SDS011;27283;52.504;13.358;2022-10-31T18:49:36;384.38;;;97.40;;
41568;SDS011;27283;52.504;13.358;2022-10-31T18:52:08;374.38;;;94.15;;
41568;SDS011;27283;52.504;13.358;2022-10-31T18:54:40;394.02;;;96.78;;
41568;SDS011;27283;52.504;13.358;2022-10-31T18:57:12;383.02;;;95.55;;
41568;SDS011;27283;52.504;13.358;2022-10-31T18:59:48;418.45;;;98.35;;
41568;SDS011;27283;52.504;13.358;2022-10-31T19:02:19;430.30;;;100.07;;
41568;SDS011;27283;52.504;13.358;2022-10-31T19:04:52;398.20;;;97.50;;
41568;SDS011;27283;52.504;13.358;2022-10-31T19:07:24;416.60;;;100.03;;
41568;SDS011;27283;52.504;13.358;2022-10-31T19:09:56;418.10;;;101.15;;
41568;SDS011;27283;52.504;13.358;2022-10-31T19:12:30;412.67;;;98.28;;
41568;SDS011;27283;52.504;13.358;2022-10-31T19:15:05;401.00;;;96.72;;
41568;SDS011;27283;52.504;13.358;2022-10-31T19:17:37;363.83;;;91.10;;
41568;SDS011;27283;52.504;13.358;2022-10-31T19:20:10;339.40;;;91.10;;
41568;SDS011;27283;52.504;13.358;2022-10-31T19:22:42;300.98;;;86.38;;
41568;SDS011;27283;52.504;13.358;2022-10-31T19:25:15;310.10;;;85.82;;
41568;SDS011;27283;52.504;13.358;2022-10-31T19:27:47;354.70;;;91.13;;
41568;SDS011;27283;52.504;13.358;2022-10-31T19:30:22;307.25;;;87.07;;
41568;SDS011;27283;52.504;13.358;2022-10-31T19:32:54;316.92;;;85.50;;
41568;SDS011;27283;52.504;13.358;2022-10-31T19:35:26;325.40;;;88.53;;
41568;SDS011;27283;52.504;13.358;2022-10-31T19:37:58;325.20;;;89.82;;
41568;SDS011;27283;52.504;13.358;2022-10-31T19:40:31;356.00;;;92.35;;
41568;SDS011;27283;52.504;13.358;2022-10-31T19:43:03;275.65;;;81.13;;
41568;SDS011;27283;52.504;13.358;2022-10-31T19:45:38;305.48;;;85.53;;
41568;SDS011;27283;52.504;13.358;2022-10-31T19:48:10;298.38;;;84.57;;
41568;SDS011;27283;52.504;13.358;2022-10-31T19:50:42;293.73;;;83.15;;
41568;SDS011;27283;52.504;13.358;2022-10-31T19:53:14;297.20;;;82.50;;
41568;SDS011;27283;52.504;13.358;2022-10-31T19:55:47;276.55;;;81.00;;
41568;SDS011;27283;52.504;13.358;2022-10-31T19:58:18;267.10;;;80.80;;
41568;SDS011;27283;52.504;13.358;2022-10-31T20:00:54;273.58;;;83.43;;
41568;SDS011;27283;52.504;13.358;2022-10-31T20:03:45;260.48;;;81.15;;
41568;SDS011;27283;52.504;13.358;2022-10-31T20:06:20;257.40;;;81.18;;
41568;SDS011;27283;52.504;13.358;2022-10-31T20:08:54;247.38;;;81.55;;
41568;SDS011;27283;52.504;13.358;2022-10-31T20:11:27;245.65;;;80.57;;
41568;SDS011;27283;52.504;13.358;2022-10-31T20:14:00;229.70;;;75.97;;
41568;SDS011;27283;52.504;13.358;2022-10-31T20:16:34;235.65;;;76.07;;
41568;SDS011;27283;52.504;13.358;2022-10-31T20:19:07;238.82;;;77.35;;
41568;SDS011;27283;52.504;13.358;2022-10-31T20:21:39;239.88;;;77.43;;
41568;SDS011;27283;52.504;13.358;2022-10-31T20:24:11;241.55;;;77.90;;
41568;SDS011;27283;52.504;13.358;2022-10-31T20:26:44;232.20;;;77.03;;
41568;SDS011;27283;52.504;13.358;2022-10-31T20:29:16;232.82;;;76.38;;
41568;SDS011;27283;52.504;13.358;2022-10-31T20:31:51;204.45;;;71.88;;
41568;SDS011;27283;52.504;13.358;2022-10-31T20:34:24;194.23;;;67.15;;
41568;SDS011;27283;52.504;13.358;2022-10-31T20:36:56;191.40;;;66.60;;
41568;SDS011;27283;52.504;13.358;2022-10-31T20:39:28;210.85;;;71.90;;
41568;SDS011;27283;52.504;13.358;2022-10-31T20:42:00;235.20;;;75.05;;
41568;SDS011;27283;52.504;13.358;2022-10-31T20:44:33;227.90;;;74.53;;
41568;SDS011;27283;52.504;13.358;2022-10-31T20:47:08;261.40;;;82.30;;
41568;SDS011;27283;52.504;13.358;2022-10-31T20:49:40;266.02;;;85.95;;
41568;SDS011;27283;52.504;13.358;2022-10-31T20:52:12;254.27;;;81.20;;
41568;SDS011;27283;52.504;13.358;2022-10-31T20:54:44;256.23;;;83.57;;
41568;SDS011;27283;52.504;13.358;2022-10-31T20:57:16;265.75;;;88.82;;
41568;SDS011;27283;52.504;13.358;2022-10-31T20:59:48;250.50;;;85.95;;
41568;SDS011;27283;52.504;13.358;2022-10-31T21:02:23;251.35;;;81.97;;
41568;SDS011;27283;52.504;13.358;2022-10-31T21:04:55;239.90;;;84.30;;
41568;SDS011;27283;52.504;13.358;2022-10-31T21:07:29;252.48;;;88.68;;